sensor_id;sensor_type;location;lat;lon;timestamp;pressure;altitude;pressure_sealevel;temperature;humidity
14242;BME280;7205;50.864;12.766;2023-06-14T00:00:17;97515.16;;;13.23;65.27
14242;BME280;7205;50.864;12.766;2023-06-14T00:02:48;97516.75;;;13.17;65.48
14242;BME280;7205;50.864;12.766;2023-06-14T00:05:16;97515.28;;;13.15;65.85
14242;BME280;7205;50.864;12.766;2023-06-14T00:07:51;97512.03;;;13.13;65.94
14242;BME280;7205;50.864;12.766;2023-06-14T00:10:20;97517.91;;;13.08;66.45
14242;BME280;7205;50.864;12.766;2023-06-14T00:12:49;97513.63;;;13.07;66.45
14242;BME280;7205;50.864;12.766;2023-06-14T00:15:22;97516.88;;;13.03;66.74
14242;BME280;7205;50.864;12.766;2023-06-14T00:17:49;97513.19;;;13.04;66.99
14242;BME280;7205;50.864;12.766;2023-06-14T00:20:17;97523.53;;;12.99;66.97
14242;BME280;7205;50.864;12.766;2023-06-14T00:22:53;97516.75;;;12.96;67.09
14242;BME280;7205;50.864;12.766;2023-06-14T00:25:21;97524.31;;;12.93;67.43
14242;BME280;7205;50.864;12.766;2023-06-14T00:27:57;97517.09;;;12.87;67.52
14242;BME280;7205;50.864;12.766;2023-06-14T00:30:28;97513.03;;;12.84;67.59
14242;BME280;7205;50.864;12.766;2023-06-14T00:33:01;97510.72;;;12.81;67.77
14242;BME280;7205;50.864;12.766;2023-06-14T00:35:28;97517.06;;;12.80;68.06
14242;BME280;7205;50.864;12.766;2023-06-14T00:37:56;97510.88;;;12.73;68.39
14242;BME280;7205;50.864;12.766;2023-06-14T00:40:23;97505.13;;;12.70;68.51
14242;BME280;7205;50.864;12.766;2023-06-14T00:42:50;97518.19;;;12.71;68.68
14242;BME280;7205;50.864;12.766;2023-06-14T00:45:18;97509.19;;;12.66;69.12
14242;BME280;7205;50.864;12.766;2023-06-14T00:47:46;97508.94;;;12.60;69.60
14242;BME280;7205;50.864;12.766;2023-06-14T00:50:15;97514.44;;;12.59;69.69
14242;BME280;7205;50.864;12.766;2023-06-14T00:52:42;97515.63;;;12.56;69.80
14242;BME280;7205;50.864;12.766;2023-06-14T00:55:09;97507.63;;;12.50;70.31
14242;BME280;7205;50.864;12.766;2023-06-14T00:57:36;97509.84;;;12.46;71.05
14242;BME280;7205;50.864;12.766;2023-06-14T01:00:08;97504.34;;;12.48;70.71
14242;BME280;7205;50.864;12.766;2023-06-14T01:02:37;97509.19;;;12.44;71.14
14242;BME280;7205;50.864;12.766;2023-06-14T01:05:05;97507.38;;;12.45;71.20
14242;BME280;7205;50.864;12.766;2023-06-14T01:07:42;97516.50;;;12.42;71.68
14242;BME280;7205;50.864;12.766;2023-06-14T01:10:24;97509.13;;;12.38;71.53
14242;BME280;7205;50.864;12.766;2023-06-14T01:13:07;97500.31;;;12.31;72.23
14242;BME280;7205;50.864;12.766;2023-06-14T01:15:38;97507.91;;;12.34;71.87
14242;BME280;7205;50.864;12.766;2023-06-14T01:18:06;97507.25;;;12.32;71.88
14242;BME280;7205;50.864;12.766;2023-06-14T01:20:43;97505.00;;;12.29;72.61
14242;BME280;7205;50.864;12.766;2023-06-14T01:23:14;97503.97;;;12.30;72.56
14242;BME280;7205;50.864;12.766;2023-06-14T01:25:40;97502.72;;;12.26;72.38
14242;BME280;7205;50.864;12.766;2023-06-14T01:28:11;97503.72;;;12.25;72.80
14242;BME280;7205;50.864;12.766;2023-06-14T01:30:40;97502.25;;;12.22;73.01
14242;BME280;7205;50.864;12.766;2023-06-14T01:33:11;97494.25;;;12.16;73.37
14242;BME280;7205;50.864;12.766;2023-06-14T01:35:39;97499.94;;;12.13;73.46
14242;BME280;7205;50.864;12.766;2023-06-14T01:38:06;97501.22;;;12.17;73.52
14242;BME280;7205;50.864;12.766;2023-06-14T01:40:36;97506.69;;;12.15;73.77
14242;BME280;7205;50.864;12.766;2023-06-14T01:43:04;97499.94;;;12.13;73.95
14242;BME280;7205;50.864;12.766;2023-06-14T01:45:32;97500.94;;;12.12;73.86
14242;BME280;7205;50.864;12.766;2023-06-14T01:48:00;97504.34;;;12.06;74.00
14242;BME280;7205;50.864;12.766;2023-06-14T01:50:28;97503.34;;;12.07;74.31
14242;BME280;7205;50.864;12.766;2023-06-14T01:52:56;97509.00;;;12.04;74.38
14242;BME280;7205;50.864;12.766;2023-06-14T01:55:23;97498.97;;;11.99;74.42
14242;BME280;7205;50.864;12.766;2023-06-14T01:57:54;97505.28;;;11.98;74.67
14242;BME280;7205;50.864;12.766;2023-06-14T02:00:21;97494.44;;;11.93;74.92
14242;BME280;7205;50.864;12.766;2023-06-14T02:02:51;97506.47;;;11.96;74.82
14242;BME280;7205;50.864;12.766;2023-06-14T02:05:18;97510.13;;;11.95;74.59
14242;BME280;7205;50.864;12.766;2023-06-14T02:07:45;97510.69;;;11.90;75.11
14242;BME280;7205;50.864;12.766;2023-06-14T02:10:15;97511.03;;;11.87;75.18
14242;BME280;7205;50.864;12.766;2023-06-14T02:12:43;97510.78;;;11.82;74.91
14242;BME280;7205;50.864;12.766;2023-06-14T02:15:12;97506.69;;;11.80;75.15
14242;BME280;7205;50.864;12.766;2023-06-14T02:17:46;97508.06;;;11.76;74.90
14242;BME280;7205;50.864;12.766;2023-06-14T02:20:16;97510.91;;;11.74;74.45
14242;BME280;7205;50.864;12.766;2023-06-14T02:22:44;97509.19;;;11.67;74.80
14242;BME280;7205;50.864;12.766;2023-06-14T02:25:10;97517.31;;;11.65;75.25
14242;BME280;7205;50.864;12.766;2023-06-14T02:27:45;97518.44;;;11.63;75.24
14242;BME280;7205;50.864;12.766;2023-06-14T02:30:14;97515.53;;;11.58;75.05
14242;BME280;7205;50.864;12.766;2023-06-14T02:32:42;97514.28;;;11.54;75.21
14242;BME280;7205;50.864;12.766;2023-06-14T02:35:12;97511.53;;;11.47;75.83
14242;BME280;7205;50.864;12.766;2023-06-14T02:37:38;97527.41;;;11.47;75.69
14242;BME280;7205;50.864;12.766;2023-06-14T02:40:08;97519.13;;;11.50;75.33
14242;BME280;7205;50.864;12.766;2023-06-14T02:42:35;97519.19;;;11.42;75.61
14242;BME280;7205;50.864;12.766;2023-06-14T02:45:04;97515.66;;;11.35;76.08
14242;BME280;7205;50.864;12.766;2023-06-14T02:47:32;97512.84;;;11.36;75.86
14242;BME280;7205;50.864;12.766;2023-06-14T02:49:59;97524.59;;;11.34;75.99
14242;BME280;7205;50.864;12.766;2023-06-14T02:52:26;97524.41;;;11.35;76.54
14242;BME280;7205;50.864;12.766;2023-06-14T02:54:53;97518.50;;;11.33;76.25
14242;BME280;7205;50.864;12.766;2023-06-14T02:57:20;97531.72;;;11.33;76.68
14242;BME280;7205;50.864;12.766;2023-06-14T02:59:47;97523.13;;;11.31;76.70
14242;BME280;7205;50.864;12.766;2023-06-14T03:02:14;97526.75;;;11.30;77.70
14242;BME280;7205;50.864;12.766;2023-06-14T03:04:44;97526.75;;;11.30;77.45
14242;BME280;7205;50.864;12.766;2023-06-14T03:07:14;97533.53;;;11.33;77.76
14242;BME280;7205;50.864;12.766;2023-06-14T03:09:48;97527.41;;;11.32;77.72
14242;BME280;7205;50.864;12.766;2023-06-14T03:12:16;97531.34;;;11.36;78.72
14242;BME280;7205;50.864;12.766;2023-06-14T03:14:43;97533.81;;;11.38;78.65
14242;BME280;7205;50.864;12.766;2023-06-14T03:17:11;97536.63;;;11.36;78.97
14242;BME280;7205;50.864;12.766;2023-06-14T03:19:39;97532.78;;;11.39;79.95
14242;BME280;7205;50.864;12.766;2023-06-14T03:22:09;97542.91;;;11.50;80.67
14242;BME280;7205;50.864;12.766;2023-06-14T03:24:38;97547.53;;;11.63;81.04
14242;BME280;7205;50.864;12.766;2023-06-14T03:27:10;97548.56;;;11.76;80.93
14242;BME280;7205;50.864;12.766;2023-06-14T03:29:41;97554.38;;;11.86;81.25
14242;BME280;7205;50.864;12.766;2023-06-14T03:32:08;97549.44;;;11.98;80.75
14242;BME280;7205;50.864;12.766;2023-06-14T03:34:38;97547.50;;;12.06;81.04
14242;BME280;7205;50.864;12.766;2023-06-14T03:37:06;97564.72;;;12.17;80.96
14242;BME280;7205;50.864;12.766;2023-06-14T03:39:35;97544.81;;;12.21;80.87
14242;BME280;7205;50.864;12.766;2023-06-14T03:42:03;97556.94;;;12.30;80.74
14242;BME280;7205;50.864;12.766;2023-06-14T03:44:31;97563.38;;;12.42;80.02
14242;BME280;7205;50.864;12.766;2023-06-14T03:46:59;97561.53;;;12.42;79.48
14242;BME280;7205;50.864;12.766;2023-06-14T03:49:27;97567.34;;;12.52;79.16
14242;BME280;7205;50.864;12.766;2023-06-14T03:51:54;97572.72;;;12.59;79.15
14242;BME280;7205;50.864;12.766;2023-06-14T03:54:23;97573.56;;;12.66;78.79
14242;BME280;7205;50.864;12.766;2023-06-14T03:56:53;97572.00;;;12.72;78.85
14242;BME280;7205;50.864;12.766;2023-06-14T03:59:20;97563.88;;;12.73;78.63
14242;BME280;7205;50.864;12.766;2023-06-14T04:01:47;97573.78;;;12.86;78.22
14242;BME280;7205;50.864;12.766;2023-06-14T04:04:15;97569.28;;;12.86;77.66
14242;BME280;7205;50.864;12.766;2023-06-14T04:06:43;97582.22;;;12.96;77.32
14242;BME280;7205;50.864;12.766;2023-06-14T04:09:13;97578.94;;;12.94;77.08
14242;BME280;7205;50.864;12.766;2023-06-14T04:11:40;97586.31;;;12.98;76.71
14242;BME280;7205;50.864;12.766;2023-06-14T04:14:09;97578.16;;;13.00;76.17
14242;BME280;7205;50.864;12.766;2023-06-14T04:16:35;97574.16;;;13.04;75.67
14242;BME280;7205;50.864;12.766;2023-06-14T04:19:02;97582.31;;;13.02;75.52
14242;BME280;7205;50.864;12.766;2023-06-14T04:21:29;97578.44;;;13.05;75.31
14242;BME280;7205;50.864;12.766;2023-06-14T04:23:59;97578.88;;;13.08;75.24
14242;BME280;7205;50.864;12.766;2023-06-14T04:26:28;97583.38;;;13.08;75.10
14242;BME280;7205;50.864;12.766;2023-06-14T04:28:56;97595.66;;;13.15;74.93
14242;BME280;7205;50.864;12.766;2023-06-14T04:31:30;97585.69;;;13.17;74.51
14242;BME280;7205;50.864;12.766;2023-06-14T04:34:00;97589.78;;;13.20;74.69
14242;BME280;7205;50.864;12.766;2023-06-14T04:36:26;97585.53;;;13.25;74.42
14242;BME280;7205;50.864;12.766;2023-06-14T04:38:54;97590.06;;;13.31;74.42
14242;BME280;7205;50.864;12.766;2023-06-14T04:41:24;97595.78;;;13.35;74.07
14242;BME280;7205;50.864;12.766;2023-06-14T04:43:56;97589.88;;;13.33;74.29
14242;BME280;7205;50.864;12.766;2023-06-14T04:46:28;97599.28;;;13.35;74.16
14242;BME280;7205;50.864;12.766;2023-06-14T04:48:59;97590.69;;;13.33;74.24
14242;BME280;7205;50.864;12.766;2023-06-14T04:51:29;97597.66;;;13.34;73.90
14242;BME280;7205;50.864;12.766;2023-06-14T04:53:59;97596.78;;;13.27;73.50
14242;BME280;7205;50.864;12.766;2023-06-14T04:56:27;97589.78;;;13.20;73.56
14242;BME280;7205;50.864;12.766;2023-06-14T04:58:55;97600.81;;;13.23;73.90
14242;BME280;7205;50.864;12.766;2023-06-14T05:01:23;97593.84;;;13.16;73.83
14242;BME280;7205;50.864;12.766;2023-06-14T05:03:50;97607.72;;;13.18;73.90
14242;BME280;7205;50.864;12.766;2023-06-14T05:06:19;97610.94;;;13.13;74.28
14242;BME280;7205;50.864;12.766;2023-06-14T05:08:49;97606.84;;;13.11;74.31
14242;BME280;7205;50.864;12.766;2023-06-14T05:11:16;97614.66;;;13.19;74.34
14242;BME280;7205;50.864;12.766;2023-06-14T05:13:43;97610.53;;;13.16;74.43
14242;BME280;7205;50.864;12.766;2023-06-14T05:16:12;97613.63;;;13.20;74.61
14242;BME280;7205;50.864;12.766;2023-06-14T05:18:41;97616.72;;;13.23;74.57
14242;BME280;7205;50.864;12.766;2023-06-14T05:21:07;97609.34;;;13.19;74.71
14242;BME280;7205;50.864;12.766;2023-06-14T05:23:36;97608.78;;;13.23;74.99
14242;BME280;7205;50.864;12.766;2023-06-14T05:26:02;97604.94;;;13.26;75.42
14242;BME280;7205;50.864;12.766;2023-06-14T05:28:30;97610.28;;;13.32;75.70
14242;BME280;7205;50.864;12.766;2023-06-14T05:30:57;97613.00;;;13.45;75.81
14242;BME280;7205;50.864;12.766;2023-06-14T05:33:24;97604.88;;;13.47;75.57
14242;BME280;7205;50.864;12.766;2023-06-14T05:35:51;97603.06;;;13.54;75.29
14242;BME280;7205;50.864;12.766;2023-06-14T05:38:18;97614.56;;;13.61;74.95
14242;BME280;7205;50.864;12.766;2023-06-14T05:40:46;97616.97;;;13.56;74.32
14242;BME280;7205;50.864;12.766;2023-06-14T05:43:13;97621.25;;;13.57;74.53
14242;BME280;7205;50.864;12.766;2023-06-14T05:45:40;97633.75;;;13.63;74.83
14242;BME280;7205;50.864;12.766;2023-06-14T05:48:07;97639.13;;;13.69;74.84
14242;BME280;7205;50.864;12.766;2023-06-14T05:50:33;97637.88;;;13.72;74.91
14242;BME280;7205;50.864;12.766;2023-06-14T05:53:00;97626.06;;;13.74;74.62
14242;BME280;7205;50.864;12.766;2023-06-14T05:55:27;97625.88;;;13.76;74.63
14242;BME280;7205;50.864;12.766;2023-06-14T05:57:55;97621.59;;;13.81;74.64
14242;BME280;7205;50.864;12.766;2023-06-14T06:00:22;97624.91;;;13.90;75.04
14242;BME280;7205;50.864;12.766;2023-06-14T06:02:49;97630.25;;;13.97;74.71
14242;BME280;7205;50.864;12.766;2023-06-14T06:05:16;97629.69;;;14.01;74.97
14242;BME280;7205;50.864;12.766;2023-06-14T06:07:42;97631.16;;;14.10;74.99
14242;BME280;7205;50.864;12.766;2023-06-14T06:10:11;97633.25;;;14.21;74.62
14242;BME280;7205;50.864;12.766;2023-06-14T06:12:37;97638.84;;;14.26;74.64
14242;BME280;7205;50.864;12.766;2023-06-14T06:15:06;97637.03;;;14.33;74.36
14242;BME280;7205;50.864;12.766;2023-06-14T06:17:33;97632.50;;;14.34;73.88
14242;BME280;7205;50.864;12.766;2023-06-14T06:20:00;97638.91;;;14.46;74.13
14242;BME280;7205;50.864;12.766;2023-06-14T06:22:28;97645.25;;;14.51;73.67
14242;BME280;7205;50.864;12.766;2023-06-14T06:24:54;97647.72;;;14.59;73.24
14242;BME280;7205;50.864;12.766;2023-06-14T06:27:21;97642.63;;;14.64;72.44
14242;BME280;7205;50.864;12.766;2023-06-14T06:29:48;97644.25;;;14.65;72.63
14242;BME280;7205;50.864;12.766;2023-06-14T06:32:16;97645.72;;;14.74;72.72
14242;BME280;7205;50.864;12.766;2023-06-14T06:34:43;97646.78;;;14.80;72.53
14242;BME280;7205;50.864;12.766;2023-06-14T06:37:10;97646.38;;;14.89;72.46
14242;BME280;7205;50.864;12.766;2023-06-14T06:39:37;97646.78;;;14.93;72.05
14242;BME280;7205;50.864;12.766;2023-06-14T06:42:04;97643.09;;;15.00;72.20
14242;BME280;7205;50.864;12.766;2023-06-14T06:44:36;97651.91;;;15.07;71.73
14242;BME280;7205;50.864;12.766;2023-06-14T06:47:03;97651.28;;;15.12;71.59
14242;BME280;7205;50.864;12.766;2023-06-14T06:49:31;97649.88;;;15.09;70.85
14242;BME280;7205;50.864;12.766;2023-06-14T06:52:02;97654.38;;;15.16;70.61
14242;BME280;7205;50.864;12.766;2023-06-14T06:54:29;97650.28;;;15.20;70.12
14242;BME280;7205;50.864;12.766;2023-06-14T06:56:56;97656.84;;;15.24;70.06
14242;BME280;7205;50.864;12.766;2023-06-14T06:59:22;97655.19;;;15.29;70.40
14242;BME280;7205;50.864;12.766;2023-06-14T07:01:49;97658.91;;;15.35;70.25
14242;BME280;7205;50.864;12.766;2023-06-14T07:04:16;97659.13;;;15.46;70.00
14242;BME280;7205;50.864;12.766;2023-06-14T07:06:46;97655.84;;;15.51;69.71
14242;BME280;7205;50.864;12.766;2023-06-14T07:09:13;97664.66;;;15.58;69.90
14242;BME280;7205;50.864;12.766;2023-06-14T07:11:43;97665.69;;;15.63;69.54
14242;BME280;7205;50.864;12.766;2023-06-14T07:14:10;97659.94;;;15.66;68.94
14242;BME280;7205;50.864;12.766;2023-06-14T07:16:38;97669.56;;;15.74;68.93
14242;BME280;7205;50.864;12.766;2023-06-14T07:19:05;97663.41;;;15.80;69.14
14242;BME280;7205;50.864;12.766;2023-06-14T07:21:31;97675.28;;;15.84;68.47
14242;BME280;7205;50.864;12.766;2023-06-14T07:24:03;97684.69;;;15.86;68.01
14242;BME280;7205;50.864;12.766;2023-06-14T07:26:30;97679.38;;;15.86;67.58
14242;BME280;7205;50.864;12.766;2023-06-14T07:28:56;97682.44;;;15.90;67.23
14242;BME280;7205;50.864;12.766;2023-06-14T07:31:23;97687.97;;;15.95;67.53
14242;BME280;7205;50.864;12.766;2023-06-14T07:33:50;97683.88;;;15.99;67.13
14242;BME280;7205;50.864;12.766;2023-06-14T07:36:17;97692.84;;;16.04;66.67
14242;BME280;7205;50.864;12.766;2023-06-14T07:38:44;97687.94;;;16.08;66.10
14242;BME280;7205;50.864;12.766;2023-06-14T07:41:12;97684.47;;;16.14;66.07
14242;BME280;7205;50.864;12.766;2023-06-14T07:43:38;97687.91;;;16.21;65.86
14242;BME280;7205;50.864;12.766;2023-06-14T07:46:05;97684.41;;;16.27;65.57
14242;BME280;7205;50.864;12.766;2023-06-14T07:48:45;97686.22;;;16.33;65.01
14242;BME280;7205;50.864;12.766;2023-06-14T07:51:12;97690.75;;;16.39;64.91
14242;BME280;7205;50.864;12.766;2023-06-14T07:53:39;97685.41;;;16.46;64.66
14242;BME280;7205;50.864;12.766;2023-06-14T07:56:06;97694.22;;;16.53;64.55
14242;BME280;7205;50.864;12.766;2023-06-14T07:58:34;97688.84;;;16.59;64.06
14242;BME280;7205;50.864;12.766;2023-06-14T08:01:01;97687.16;;;16.65;63.85
14242;BME280;7205;50.864;12.766;2023-06-14T08:03:31;97681.78;;;16.71;63.29
14242;BME280;7205;50.864;12.766;2023-06-14T08:06:01;97685.47;;;16.77;63.50
14242;BME280;7205;50.864;12.766;2023-06-14T08:08:28;97687.47;;;16.88;63.72
14242;BME280;7205;50.864;12.766;2023-06-14T08:10:55;97688.63;;;16.98;63.88
14242;BME280;7205;50.864;12.766;2023-06-14T08:13:21;97693.91;;;17.05;63.09
14242;BME280;7205;50.864;12.766;2023-06-14T08:15:50;97688.34;;;17.13;62.26
14242;BME280;7205;50.864;12.766;2023-06-14T08:18:16;97690.38;;;17.17;61.24
14242;BME280;7205;50.864;12.766;2023-06-14T08:20:43;97689.94;;;17.20;59.93
14242;BME280;7205;50.864;12.766;2023-06-14T08:23:10;97687.25;;;17.20;59.09
14242;BME280;7205;50.864;12.766;2023-06-14T08:25:37;97684.75;;;17.25;59.55
14242;BME280;7205;50.864;12.766;2023-06-14T08:28:04;97693.78;;;17.31;59.01
14242;BME280;7205;50.864;12.766;2023-06-14T08:30:31;97695.56;;;17.37;58.67
14242;BME280;7205;50.864;12.766;2023-06-14T08:32:59;97692.84;;;17.43;58.82
14242;BME280;7205;50.864;12.766;2023-06-14T08:35:26;97686.69;;;17.49;57.94
14242;BME280;7205;50.864;12.766;2023-06-14T08:37:55;97693.00;;;17.55;57.55
14242;BME280;7205;50.864;12.766;2023-06-14T08:40:23;97690.47;;;17.60;56.79
14242;BME280;7205;50.864;12.766;2023-06-14T08:42:51;97685.31;;;17.65;56.49
14242;BME280;7205;50.864;12.766;2023-06-14T08:45:18;97695.13;;;17.71;56.80
14242;BME280;7205;50.864;12.766;2023-06-14T08:47:46;97690.75;;;17.77;55.47
14242;BME280;7205;50.864;12.766;2023-06-14T08:50:21;97693.81;;;17.80;54.69
14242;BME280;7205;50.864;12.766;2023-06-14T08:52:53;97687.59;;;17.86;54.13
14242;BME280;7205;50.864;12.766;2023-06-14T08:55:23;97692.28;;;17.91;53.43
14242;BME280;7205;50.864;12.766;2023-06-14T08:57:54;97701.28;;;17.96;51.94
14242;BME280;7205;50.864;12.766;2023-06-14T09:00:22;97705.72;;;18.02;51.52
14242;BME280;7205;50.864;12.766;2023-06-14T09:02:49;97692.13;;;18.04;51.08
14242;BME280;7205;50.864;12.766;2023-06-14T09:05:23;97704.88;;;18.08;50.39
14242;BME280;7205;50.864;12.766;2023-06-14T09:07:50;97706.88;;;18.13;50.17
14242;BME280;7205;50.864;12.766;2023-06-14T09:10:18;97701.06;;;18.16;49.92
14242;BME280;7205;50.864;12.766;2023-06-14T09:12:45;97701.81;;;18.23;50.16
14242;BME280;7205;50.864;12.766;2023-06-14T09:15:12;97706.06;;;18.30;50.30
14242;BME280;7205;50.864;12.766;2023-06-14T09:17:40;97706.00;;;18.37;50.38
14242;BME280;7205;50.864;12.766;2023-06-14T09:20:08;97708.63;;;18.43;49.90
14242;BME280;7205;50.864;12.766;2023-06-14T09:22:37;97695.41;;;18.48;49.55
14242;BME280;7205;50.864;12.766;2023-06-14T09:25:05;97698.00;;;18.55;50.00
14242;BME280;7205;50.864;12.766;2023-06-14T09:27:32;97705.94;;;18.61;49.75
14242;BME280;7205;50.864;12.766;2023-06-14T09:30:01;97715.75;;;18.67;48.88
14242;BME280;7205;50.864;12.766;2023-06-14T09:32:28;97702.38;;;18.67;48.80
14242;BME280;7205;50.864;12.766;2023-06-14T09:34:56;97703.78;;;18.70;48.53
14242;BME280;7205;50.864;12.766;2023-06-14T09:37:27;97711.81;;;18.70;48.68
14242;BME280;7205;50.864;12.766;2023-06-14T09:39:56;97710.53;;;18.72;48.27
14242;BME280;7205;50.864;12.766;2023-06-14T09:42:24;97712.75;;;18.75;47.84
14242;BME280;7205;50.864;12.766;2023-06-14T09:44:52;97717.31;;;18.75;47.47
14242;BME280;7205;50.864;12.766;2023-06-14T09:47:20;97704.72;;;18.75;47.37
14242;BME280;7205;50.864;12.766;2023-06-14T09:49:47;97711.97;;;18.75;47.15
14242;BME280;7205;50.864;12.766;2023-06-14T09:52:17;97700.81;;;18.78;47.47
14242;BME280;7205;50.864;12.766;2023-06-14T09:54:45;97704.31;;;18.79;47.45
14242;BME280;7205;50.864;12.766;2023-06-14T09:57:15;97708.59;;;18.80;47.65
14242;BME280;7205;50.864;12.766;2023-06-14T09:59:43;97704.06;;;18.80;47.29
14242;BME280;7205;50.864;12.766;2023-06-14T10:02:18;97699.31;;;18.82;47.80
14242;BME280;7205;50.864;12.766;2023-06-14T10:04:50;97709.72;;;18.90;47.95
14242;BME280;7205;50.864;12.766;2023-06-14T10:07:20;97713.69;;;18.99;47.36
14242;BME280;7205;50.864;12.766;2023-06-14T10:09:49;97705.13;;;19.09;46.93
14242;BME280;7205;50.864;12.766;2023-06-14T10:12:18;97709.59;;;19.26;47.10
14242;BME280;7205;50.864;12.766;2023-06-14T10:14:49;97710.28;;;19.51;47.53
14242;BME280;7205;50.864;12.766;2023-06-14T10:17:24;97709.66;;;19.79;46.85
14242;BME280;7205;50.864;12.766;2023-06-14T10:19:58;97715.84;;;20.03;45.77
14242;BME280;7205;50.864;12.766;2023-06-14T10:22:35;97706.16;;;20.13;44.68
14242;BME280;7205;50.864;12.766;2023-06-14T10:25:06;97706.75;;;20.27;45.14
14242;BME280;7205;50.864;12.766;2023-06-14T10:27:39;97713.03;;;20.44;44.79
14242;BME280;7205;50.864;12.766;2023-06-14T10:30:08;97711.50;;;20.59;44.22
14242;BME280;7205;50.864;12.766;2023-06-14T10:33:04;97717.69;;;20.71;44.02
14242;BME280;7205;50.864;12.766;2023-06-14T10:35:32;97710.88;;;20.80;43.86
14242;BME280;7205;50.864;12.766;2023-06-14T10:38:06;97710.63;;;20.82;43.82
14242;BME280;7205;50.864;12.766;2023-06-14T10:40:34;97717.53;;;20.78;43.59
14242;BME280;7205;50.864;12.766;2023-06-14T10:43:24;97706.69;;;20.73;44.02
14242;BME280;7205;50.864;12.766;2023-06-14T10:46:16;97704.25;;;20.71;44.23
14242;BME280;7205;50.864;12.766;2023-06-14T10:48:44;97712.31;;;20.71;43.99
14242;BME280;7205;50.864;12.766;2023-06-14T10:51:18;97713.56;;;20.69;43.89
14242;BME280;7205;50.864;12.766;2023-06-14T10:53:47;97702.84;;;20.69;43.59
14242;BME280;7205;50.864;12.766;2023-06-14T10:56:26;97705.53;;;20.69;43.34
14242;BME280;7205;50.864;12.766;2023-06-14T10:58:55;97711.84;;;20.63;43.14
14242;BME280;7205;50.864;12.766;2023-06-14T11:01:36;97701.13;;;20.51;43.27
14242;BME280;7205;50.864;12.766;2023-06-14T11:04:10;97699.38;;;20.45;43.63
14242;BME280;7205;50.864;12.766;2023-06-14T11:06:55;97702.56;;;20.42;43.08
14242;BME280;7205;50.864;12.766;2023-06-14T11:10:10;97694.28;;;20.32;42.24
14242;BME280;7205;50.864;12.766;2023-06-14T11:12:39;97691.84;;;20.31;41.79
14242;BME280;7205;50.864;12.766;2023-06-14T11:15:09;97693.94;;;20.29;42.00
14242;BME280;7205;50.864;12.766;2023-06-14T11:17:36;97694.28;;;20.32;42.46
14242;BME280;7205;50.864;12.766;2023-06-14T11:20:09;97689.50;;;20.34;42.39
14242;BME280;7205;50.864;12.766;2023-06-14T11:22:39;97696.72;;;20.45;43.51
14242;BME280;7205;50.864;12.766;2023-06-14T11:25:08;97686.63;;;20.64;43.68
14242;BME280;7205;50.864;12.766;2023-06-14T11:27:35;97691.72;;;20.77;42.11
14242;BME280;7205;50.864;12.766;2023-06-14T11:30:02;97693.25;;;20.84;41.77
14242;BME280;7205;50.864;12.766;2023-06-14T11:32:32;97688.66;;;20.85;41.95
14242;BME280;7205;50.864;12.766;2023-06-14T11:34:59;97694.50;;;20.82;41.41
14242;BME280;7205;50.864;12.766;2023-06-14T11:37:27;97686.94;;;20.79;41.30
14242;BME280;7205;50.864;12.766;2023-06-14T11:39:56;97687.53;;;20.81;42.22
14242;BME280;7205;50.864;12.766;2023-06-14T11:42:24;97689.44;;;20.97;42.16
14242;BME280;7205;50.864;12.766;2023-06-14T11:44:51;97684.88;;;21.09;41.34
14242;BME280;7205;50.864;12.766;2023-06-14T11:47:17;97679.78;;;21.24;41.72
14242;BME280;7205;50.864;12.766;2023-06-14T11:49:46;97681.75;;;21.45;40.31
14242;BME280;7205;50.864;12.766;2023-06-14T11:52:12;97684.22;;;21.63;39.93
14242;BME280;7205;50.864;12.766;2023-06-14T11:54:39;97678.78;;;21.75;40.00
14242;BME280;7205;50.864;12.766;2023-06-14T11:57:06;97681.66;;;21.85;40.26
14242;BME280;7205;50.864;12.766;2023-06-14T11:59:38;97688.97;;;21.89;39.55
14242;BME280;7205;50.864;12.766;2023-06-14T12:02:05;97683.41;;;21.96;39.37
14242;BME280;7205;50.864;12.766;2023-06-14T12:04:32;97675.44;;;22.01;39.18
14242;BME280;7205;50.864;12.766;2023-06-14T12:07:10;97672.31;;;22.09;39.47
14242;BME280;7205;50.864;12.766;2023-06-14T12:09:39;97683.28;;;22.24;39.34
14242;BME280;7205;50.864;12.766;2023-06-14T12:12:09;97685.66;;;22.37;38.44
14242;BME280;7205;50.864;12.766;2023-06-14T12:14:36;97671.94;;;22.38;38.12
14242;BME280;7205;50.864;12.766;2023-06-14T12:17:04;97672.97;;;22.37;38.02
14242;BME280;7205;50.864;12.766;2023-06-14T12:19:32;97673.81;;;22.38;38.11
14242;BME280;7205;50.864;12.766;2023-06-14T12:21:59;97666.06;;;22.42;38.22
14242;BME280;7205;50.864;12.766;2023-06-14T12:24:31;97664.31;;;22.52;38.12
14242;BME280;7205;50.864;12.766;2023-06-14T12:26:58;97662.31;;;22.64;37.00
14242;BME280;7205;50.864;12.766;2023-06-14T12:29:28;97671.84;;;22.72;37.36
14242;BME280;7205;50.864;12.766;2023-06-14T12:31:55;97673.59;;;22.83;37.12
14242;BME280;7205;50.864;12.766;2023-06-14T12:34:22;97669.69;;;22.95;36.65
14242;BME280;7205;50.864;12.766;2023-06-14T12:36:50;97667.31;;;22.99;36.74
14242;BME280;7205;50.864;12.766;2023-06-14T12:39:17;97682.16;;;23.01;36.68
14242;BME280;7205;50.864;12.766;2023-06-14T12:41:45;97664.16;;;23.07;37.01
14242;BME280;7205;50.864;12.766;2023-06-14T12:44:12;97679.63;;;23.16;37.23
14242;BME280;7205;50.864;12.766;2023-06-14T12:46:40;97678.00;;;23.15;36.97
14242;BME280;7205;50.864;12.766;2023-06-14T12:49:08;97673.06;;;23.07;37.09
14242;BME280;7205;50.864;12.766;2023-06-14T12:51:37;97680.28;;;23.02;37.37
14242;BME280;7205;50.864;12.766;2023-06-14T12:54:04;97673.50;;;22.99;37.53
14242;BME280;7205;50.864;12.766;2023-06-14T12:56:31;97682.34;;;22.95;37.43
14242;BME280;7205;50.864;12.766;2023-06-14T12:58:59;97678.13;;;22.77;36.96
14242;BME280;7205;50.864;12.766;2023-06-14T13:01:26;97677.88;;;22.57;37.35
14242;BME280;7205;50.864;12.766;2023-06-14T13:03:56;97684.75;;;22.31;37.38
14242;BME280;7205;50.864;12.766;2023-06-14T13:06:22;97676.31;;;22.06;37.77
14242;BME280;7205;50.864;12.766;2023-06-14T13:08:51;97689.72;;;21.85;38.02